sensor_id;sensor_type;location;lat;lon;timestamp;P1;durP1;ratioP1;P2;durP2;ratioP2
30384;SDS011;17181;51.002;4.096;2022-08-05T00:01:51;6.27;;;2.10;;
30384;SDS011;17181;51.002;4.096;2022-08-05T00:04:17;6.30;;;1.83;;
30384;SDS011;17181;51.002;4.096;2022-08-05T00:06:42;4.33;;;2.07;;
30384;SDS011;17181;51.002;4.096;2022-08-05T00:09:09;7.57;;;2.40;;
30384;SDS011;17181;51.002;4.096;2022-08-05T00:11:35;5.47;;;2.37;;
30384;SDS011;17181;51.002;4.096;2022-08-05T00:14:01;1.93;;;1.70;;
30384;SDS011;17181;51.002;4.096;2022-08-05T00:16:27;5.10;;;2.13;;
30384;SDS011;17181;51.002;4.096;2022-08-05T00:18:53;4.17;;;1.97;;
30384;SDS011;17181;51.002;4.096;2022-08-05T00:21:19;7.60;;;2.80;;
30384;SDS011;17181;51.002;4.096;2022-08-05T00:23:45;4.60;;;1.47;;
30384;SDS011;17181;51.002;4.096;2022-08-05T00:26:12;4.37;;;1.67;;
30384;SDS011;17181;51.002;4.096;2022-08-05T00:28:38;7.93;;;2.07;;
30384;SDS011;17181;51.002;4.096;2022-08-05T00:31:04;8.90;;;2.00;;
30384;SDS011;17181;51.002;4.096;2022-08-05T00:33:31;2.93;;;2.07;;
30384;SDS011;17181;51.002;4.096;2022-08-05T00:35:57;2.17;;;1.73;;
30384;SDS011;17181;51.002;4.096;2022-08-05T00:38:24;3.30;;;1.53;;
30384;SDS011;17181;51.002;4.096;2022-08-05T00:40:51;4.23;;;1.73;;
30384;SDS011;17181;51.002;4.096;2022-08-05T00:43:19;5.40;;;2.10;;
30384;SDS011;17181;51.002;4.096;2022-08-05T00:45:45;10.00;;;1.63;;
30384;SDS011;17181;51.002;4.096;2022-08-05T00:48:19;2.63;;;1.77;;
30384;SDS011;17181;51.002;4.096;2022-08-05T00:50:47;6.43;;;2.07;;
30384;SDS011;17181;51.002;4.096;2022-08-05T00:53:15;6.67;;;1.50;;
30384;SDS011;17181;51.002;4.096;2022-08-05T00:55:42;2.13;;;1.50;;
30384;SDS011;17181;51.002;4.096;2022-08-05T00:58:09;4.60;;;1.97;;
30384;SDS011;17181;51.002;4.096;2022-08-05T01:00:36;8.37;;;2.37;;
30384;SDS011;17181;51.002;4.096;2022-08-05T01:03:02;3.20;;;1.80;;
30384;SDS011;17181;51.002;4.096;2022-08-05T01:05:28;1.17;;;1.03;;
30384;SDS011;17181;51.002;4.096;2022-08-05T01:07:55;2.50;;;1.40;;
30384;SDS011;17181;51.002;4.096;2022-08-05T01:10:22;7.37;;;1.53;;
30384;SDS011;17181;51.002;4.096;2022-08-05T01:12:55;0.83;;;0.83;;
30384;SDS011;17181;51.002;4.096;2022-08-05T01:15:28;5.20;;;1.40;;
30384;SDS011;17181;51.002;4.096;2022-08-05T01:18:00;2.47;;;1.70;;
30384;SDS011;17181;51.002;4.096;2022-08-05T01:26:39;1.33;;;1.23;;
30384;SDS011;17181;51.002;4.096;2022-08-05T01:32:01;3.57;;;1.80;;
30384;SDS011;17181;51.002;4.096;2022-08-05T01:34:31;5.13;;;1.63;;
30384;SDS011;17181;51.002;4.096;2022-08-05T01:37:07;4.43;;;1.83;;
30384;SDS011;17181;51.002;4.096;2022-08-05T01:39:40;5.77;;;1.93;;
30384;SDS011;17181;51.002;4.096;2022-08-05T01:42:08;3.67;;;1.73;;
30384;SDS011;17181;51.002;4.096;2022-08-05T01:44:41;4.27;;;1.97;;
30384;SDS011;17181;51.002;4.096;2022-08-05T01:47:09;2.97;;;1.83;;
30384;SDS011;17181;51.002;4.096;2022-08-05T01:49:36;3.90;;;1.53;;
30384;SDS011;17181;51.002;4.096;2022-08-05T01:52:06;2.87;;;1.80;;
30384;SDS011;17181;51.002;4.096;2022-08-05T01:54:35;2.33;;;1.70;;
30384;SDS011;17181;51.002;4.096;2022-08-05T01:57:05;3.17;;;1.53;;
30384;SDS011;17181;51.002;4.096;2022-08-05T01:59:33;2.07;;;1.83;;
30384;SDS011;17181;51.002;4.096;2022-08-05T02:02:01;3.93;;;2.23;;
30384;SDS011;17181;51.002;4.096;2022-08-05T02:04:28;3.77;;;1.60;;
30384;SDS011;17181;51.002;4.096;2022-08-05T02:06:56;3.53;;;1.90;;
30384;SDS011;17181;51.002;4.096;2022-08-05T02:09:23;2.53;;;1.67;;
30384;SDS011;17181;51.002;4.096;2022-08-05T02:14:33;6.83;;;2.03;;
30384;SDS011;17181;51.002;4.096;2022-08-05T02:17:10;7.37;;;2.07;;
30384;SDS011;17181;51.002;4.096;2022-08-05T02:19:47;5.23;;;2.00;;
30384;SDS011;17181;51.002;4.096;2022-08-05T02:22:18;4.60;;;2.00;;
30384;SDS011;17181;51.002;4.096;2022-08-05T02:25:07;6.10;;;1.83;;
30384;SDS011;17181;51.002;4.096;2022-08-05T02:27:38;7.23;;;2.00;;
30384;SDS011;17181;51.002;4.096;2022-08-05T02:30:05;1.43;;;1.33;;
30384;SDS011;17181;51.002;4.096;2022-08-05T02:32:33;4.30;;;1.80;;
30384;SDS011;17181;51.002;4.096;2022-08-05T02:35:03;4.37;;;1.60;;
30384;SDS011;17181;51.002;4.096;2022-08-05T02:37:31;12.43;;;2.27;;
30384;SDS011;17181;51.002;4.096;2022-08-05T02:40:00;2.70;;;1.60;;
30384;SDS011;17181;51.002;4.096;2022-08-05T02:42:27;11.47;;;1.77;;
30384;SDS011;17181;51.002;4.096;2022-08-05T02:44:54;3.70;;;2.03;;
30384;SDS011;17181;51.002;4.096;2022-08-05T02:47:22;7.77;;;1.90;;
30384;SDS011;17181;51.002;4.096;2022-08-05T02:49:49;4.17;;;1.97;;
30384;SDS011;17181;51.002;4.096;2022-08-05T02:52:17;3.40;;;2.33;;
30384;SDS011;17181;51.002;4.096;2022-08-05T02:54:43;10.10;;;2.17;;
30384;SDS011;17181;51.002;4.096;2022-08-05T02:57:11;7.17;;;1.73;;
30384;SDS011;17181;51.002;4.096;2022-08-05T02:59:41;7.57;;;2.33;;
30384;SDS011;17181;51.002;4.096;2022-08-05T03:02:10;6.00;;;2.23;;
30384;SDS011;17181;51.002;4.096;2022-08-05T03:04:38;3.20;;;1.60;;
30384;SDS011;17181;51.002;4.096;2022-08-05T03:07:05;2.73;;;1.93;;
30384;SDS011;17181;51.002;4.096;2022-08-05T03:09:34;3.77;;;2.20;;
30384;SDS011;17181;51.002;4.096;2022-08-05T03:12:01;3.13;;;2.40;;
30384;SDS011;17181;51.002;4.096;2022-08-05T03:14:27;7.97;;;2.13;;
30384;SDS011;17181;51.002;4.096;2022-08-05T03:16:53;9.23;;;2.20;;
30384;SDS011;17181;51.002;4.096;2022-08-05T03:19:19;4.63;;;2.00;;
30384;SDS011;17181;51.002;4.096;2022-08-05T03:21:47;5.53;;;2.17;;
30384;SDS011;17181;51.002;4.096;2022-08-05T03:24:13;3.17;;;2.17;;
30384;SDS011;17181;51.002;4.096;2022-08-05T03:26:39;5.67;;;2.50;;
30384;SDS011;17181;51.002;4.096;2022-08-05T03:29:05;5.10;;;2.23;;
30384;SDS011;17181;51.002;4.096;2022-08-05T03:31:31;2.00;;;1.90;;
30384;SDS011;17181;51.002;4.096;2022-08-05T03:33:58;4.67;;;2.17;;
30384;SDS011;17181;51.002;4.096;2022-08-05T03:36:24;19.90;;;2.60;;
30384;SDS011;17181;51.002;4.096;2022-08-05T03:38:49;6.87;;;2.33;;
30384;SDS011;17181;51.002;4.096;2022-08-05T03:41:15;4.93;;;2.27;;
30384;SDS011;17181;51.002;4.096;2022-08-05T03:43:41;3.30;;;2.43;;
30384;SDS011;17181;51.002;4.096;2022-08-05T03:46:07;12.20;;;3.03;;
30384;SDS011;17181;51.002;4.096;2022-08-05T03:48:33;7.47;;;2.87;;
30384;SDS011;17181;51.002;4.096;2022-08-05T03:53:30;3.53;;;2.97;;
30384;SDS011;17181;51.002;4.096;2022-08-05T03:56:02;4.97;;;2.50;;
30384;SDS011;17181;51.002;4.096;2022-08-05T03:58:33;5.20;;;3.13;;
30384;SDS011;17181;51.002;4.096;2022-08-05T04:01:01;2.60;;;2.40;;
30384;SDS011;17181;51.002;4.096;2022-08-05T04:03:30;10.07;;;2.93;;
30384;SDS011;17181;51.002;4.096;2022-08-05T04:06:01;6.33;;;3.13;;
30384;SDS011;17181;51.002;4.096;2022-08-05T04:08:28;9.03;;;3.10;;
30384;SDS011;17181;51.002;4.096;2022-08-05T04:10:55;7.47;;;2.90;;
30384;SDS011;17181;51.002;4.096;2022-08-05T04:13:21;7.97;;;2.83;;
30384;SDS011;17181;51.002;4.096;2022-08-05T04:15:48;5.67;;;3.23;;
30384;SDS011;17181;51.002;4.096;2022-08-05T04:18:14;4.90;;;3.20;;
30384;SDS011;17181;51.002;4.096;2022-08-05T04:20:41;7.10;;;3.23;;
30384;SDS011;17181;51.002;4.096;2022-08-05T04:23:07;8.70;;;2.83;;
30384;SDS011;17181;51.002;4.096;2022-08-05T04:25:36;3.53;;;3.07;;
30384;SDS011;17181;51.002;4.096;2022-08-05T04:28:02;6.90;;;3.40;;
30384;SDS011;17181;51.002;4.096;2022-08-05T04:30:28;5.63;;;2.33;;
30384;SDS011;17181;51.002;4.096;2022-08-05T04:32:54;14.20;;;3.40;;
30384;SDS011;17181;51.002;4.096;2022-08-05T04:35:19;4.17;;;3.33;;
30384;SDS011;17181;51.002;4.096;2022-08-05T04:37:45;2.67;;;2.43;;
30384;SDS011;17181;51.002;4.096;2022-08-05T04:40:11;9.30;;;3.37;;
30384;SDS011;17181;51.002;4.096;2022-08-05T04:42:37;5.17;;;2.53;;
30384;SDS011;17181;51.002;4.096;2022-08-05T04:45:03;6.03;;;3.63;;
30384;SDS011;17181;51.002;4.096;2022-08-05T04:47:29;8.47;;;3.43;;
30384;SDS011;17181;51.002;4.096;2022-08-05T04:49:54;9.57;;;3.50;;
30384;SDS011;17181;51.002;4.096;2022-08-05T04:52:21;4.47;;;3.37;;
30384;SDS011;17181;51.002;4.096;2022-08-05T04:54:46;3.40;;;2.80;;
30384;SDS011;17181;51.002;4.096;2022-08-05T04:57:12;6.30;;;3.13;;
30384;SDS011;17181;51.002;4.096;2022-08-05T04:59:38;6.87;;;3.17;;
30384;SDS011;17181;51.002;4.096;2022-08-05T05:02:04;4.13;;;3.60;;
30384;SDS011;17181;51.002;4.096;2022-08-05T05:04:30;12.27;;;3.63;;
30384;SDS011;17181;51.002;4.096;2022-08-05T05:06:56;8.70;;;4.17;;
30384;SDS011;17181;51.002;4.096;2022-08-05T05:09:22;5.67;;;4.37;;
30384;SDS011;17181;51.002;4.096;2022-08-05T05:11:47;8.67;;;5.00;;
30384;SDS011;17181;51.002;4.096;2022-08-05T05:14:13;7.03;;;3.90;;
30384;SDS011;17181;51.002;4.096;2022-08-05T05:16:39;8.27;;;4.13;;
30384;SDS011;17181;51.002;4.096;2022-08-05T05:19:05;10.87;;;4.33;;
30384;SDS011;17181;51.002;4.096;2022-08-05T05:21:30;5.30;;;4.23;;
30384;SDS011;17181;51.002;4.096;2022-08-05T05:23:56;16.73;;;4.63;;
30384;SDS011;17181;51.002;4.096;2022-08-05T05:26:22;11.73;;;4.30;;
30384;SDS011;17181;51.002;4.096;2022-08-05T05:28:48;10.93;;;4.87;;
30384;SDS011;17181;51.002;4.096;2022-08-05T05:31:13;10.97;;;4.83;;
30384;SDS011;17181;51.002;4.096;2022-08-05T05:33:39;9.73;;;4.50;;
30384;SDS011;17181;51.002;4.096;2022-08-05T05:36:05;8.20;;;4.33;;
30384;SDS011;17181;51.002;4.096;2022-08-05T05:38:34;9.57;;;4.87;;
30384;SDS011;17181;51.002;4.096;2022-08-05T05:41:00;7.93;;;5.40;;
30384;SDS011;17181;51.002;4.096;2022-08-05T05:43:25;6.63;;;5.17;;
30384;SDS011;17181;51.002;4.096;2022-08-05T05:45:51;11.07;;;4.70;;
30384;SDS011;17181;51.002;4.096;2022-08-05T05:48:17;12.60;;;4.43;;
30384;SDS011;17181;51.002;4.096;2022-08-05T05:50:43;8.67;;;4.63;;
30384;SDS011;17181;51.002;4.096;2022-08-05T05:53:09;10.87;;;5.10;;
30384;SDS011;17181;51.002;4.096;2022-08-05T05:55:35;10.33;;;4.43;;
30384;SDS011;17181;51.002;4.096;2022-08-05T05:58:02;13.73;;;5.27;;
30384;SDS011;17181;51.002;4.096;2022-08-05T06:00:28;8.60;;;4.80;;
30384;SDS011;17181;51.002;4.096;2022-08-05T06:02:54;5.20;;;2.87;;
30384;SDS011;17181;51.002;4.096;2022-08-05T06:05:20;4.67;;;3.63;;
30384;SDS011;17181;51.002;4.096;2022-08-05T06:07:46;10.27;;;4.70;;
30384;SDS011;17181;51.002;4.096;2022-08-05T06:10:12;10.20;;;4.60;;
30384;SDS011;17181;51.002;4.096;2022-08-05T06:12:38;14.23;;;5.47;;
30384;SDS011;17181;51.002;4.096;2022-08-05T06:15:05;9.87;;;5.43;;
30384;SDS011;17181;51.002;4.096;2022-08-05T06:17:32;13.83;;;5.67;;
30384;SDS011;17181;51.002;4.096;2022-08-05T06:19:58;14.63;;;4.53;;
30384;SDS011;17181;51.002;4.096;2022-08-05T06:22:24;4.93;;;4.07;;
30384;SDS011;17181;51.002;4.096;2022-08-05T06:24:52;18.37;;;5.57;;
30384;SDS011;17181;51.002;4.096;2022-08-05T06:27:18;16.17;;;5.63;;
30384;SDS011;17181;51.002;4.096;2022-08-05T06:29:43;8.97;;;5.13;;
30384;SDS011;17181;51.002;4.096;2022-08-05T06:32:09;14.57;;;5.80;;
30384;SDS011;17181;51.002;4.096;2022-08-05T06:34:36;10.40;;;5.10;;
30384;SDS011;17181;51.002;4.096;2022-08-05T06:37:02;11.60;;;4.93;;
30384;SDS011;17181;51.002;4.096;2022-08-05T06:39:28;14.90;;;4.33;;
30384;SDS011;17181;51.002;4.096;2022-08-05T06:41:55;10.47;;;4.17;;
30384;SDS011;17181;51.002;4.096;2022-08-05T06:44:22;5.93;;;4.30;;
30384;SDS011;17181;51.002;4.096;2022-08-05T06:46:48;9.27;;;4.50;;
30384;SDS011;17181;51.002;4.096;2022-08-05T06:49:14;7.30;;;4.23;;
30384;SDS011;17181;51.002;4.096;2022-08-05T06:51:40;6.30;;;3.40;;
30384;SDS011;17181;51.002;4.096;2022-08-05T06:54:06;10.07;;;4.43;;
30384;SDS011;17181;51.002;4.096;2022-08-05T06:56:32;9.90;;;4.37;;
30384;SDS011;17181;51.002;4.096;2022-08-05T06:58:59;8.63;;;4.30;;
30384;SDS011;17181;51.002;4.096;2022-08-05T07:01:25;12.70;;;4.90;;
30384;SDS011;17181;51.002;4.096;2022-08-05T07:03:51;5.30;;;3.10;;
30384;SDS011;17181;51.002;4.096;2022-08-05T07:06:17;7.63;;;3.27;;
30384;SDS011;17181;51.002;4.096;2022-08-05T07:08:43;9.43;;;4.07;;
30384;SDS011;17181;51.002;4.096;2022-08-05T07:11:09;10.23;;;3.80;;
30384;SDS011;17181;51.002;4.096;2022-08-05T07:13:35;8.37;;;2.80;;
30384;SDS011;17181;51.002;4.096;2022-08-05T07:16:19;6.40;;;3.43;;
30384;SDS011;17181;51.002;4.096;2022-08-05T07:19:04;7.70;;;2.70;;
30384;SDS011;17181;51.002;4.096;2022-08-05T07:21:30;2.77;;;2.40;;
30384;SDS011;17181;51.002;4.096;2022-08-05T07:23:56;2.73;;;2.23;;
30384;SDS011;17181;51.002;4.096;2022-08-05T07:26:22;5.17;;;2.80;;
30384;SDS011;17181;51.002;4.096;2022-08-05T07:28:48;3.80;;;2.37;;
30384;SDS011;17181;51.002;4.096;2022-08-05T07:31:15;12.27;;;3.27;;
30384;SDS011;17181;51.002;4.096;2022-08-05T07:33:41;3.23;;;2.10;;
30384;SDS011;17181;51.002;4.096;2022-08-05T07:36:07;3.03;;;1.87;;
30384;SDS011;17181;51.002;4.096;2022-08-05T07:38:34;2.53;;;1.90;;
30384;SDS011;17181;51.002;4.096;2022-08-05T07:41:06;1.80;;;1.70;;
30384;SDS011;17181;51.002;4.096;2022-08-05T07:43:34;4.60;;;1.47;;
30384;SDS011;17181;51.002;4.096;2022-08-05T07:46:00;4.60;;;1.80;;
30384;SDS011;17181;51.002;4.096;2022-08-05T07:48:26;0.80;;;0.80;;
30384;SDS011;17181;51.002;4.096;2022-08-05T07:50:52;1.10;;;0.97;;
30384;SDS011;17181;51.002;4.096;2022-08-05T07:53:18;4.53;;;1.47;;
30384;SDS011;17181;51.002;4.096;2022-08-05T07:55:43;1.97;;;1.50;;
30384;SDS011;17181;51.002;4.096;2022-08-05T07:58:09;4.90;;;1.80;;
30384;SDS011;17181;51.002;4.096;2022-08-05T08:00:35;1.43;;;1.17;;
30384;SDS011;17181;51.002;4.096;2022-08-05T08:03:01;2.50;;;1.37;;
30384;SDS011;17181;51.002;4.096;2022-08-05T08:05:27;3.97;;;1.40;;
30384;SDS011;17181;51.002;4.096;2022-08-05T08:07:53;6.27;;;1.50;;
30384;SDS011;17181;51.002;4.096;2022-08-05T08:10:22;3.03;;;1.50;;
30384;SDS011;17181;51.002;4.096;2022-08-05T08:12:50;3.30;;;1.00;;
30384;SDS011;17181;51.002;4.096;2022-08-05T08:15:16;4.73;;;1.67;;
30384;SDS011;17181;51.002;4.096;2022-08-05T08:17:45;4.70;;;1.40;;
30384;SDS011;17181;51.002;4.096;2022-08-05T08:20:11;1.43;;;1.23;;
30384;SDS011;17181;51.002;4.096;2022-08-05T08:22:37;1.83;;;1.10;;
30384;SDS011;17181;51.002;4.096;2022-08-05T08:25:03;0.40;;;0.40;;
30384;SDS011;17181;51.002;4.096;2022-08-05T08:27:30;0.83;;;0.83;;
30384;SDS011;17181;51.002;4.096;2022-08-05T08:29:56;1.90;;;1.10;;
30384;SDS011;17181;51.002;4.096;2022-08-05T08:32:22;1.23;;;1.23;;
30384;SDS011;17181;51.002;4.096;2022-08-05T08:34:48;2.93;;;1.67;;
30384;SDS011;17181;51.002;4.096;2022-08-05T08:37:16;3.30;;;0.83;;
30384;SDS011;17181;51.002;4.096;2022-08-05T08:39:42;0.73;;;0.70;;
30384;SDS011;17181;51.002;4.096;2022-08-05T08:42:08;1.90;;;1.00;;
30384;SDS011;17181;51.002;4.096;2022-08-05T08:44:34;3.53;;;1.13;;
30384;SDS011;17181;51.002;4.096;2022-08-05T08:47:02;1.30;;;0.90;;
30384;SDS011;17181;51.002;4.096;2022-08-05T08:49:29;0.87;;;0.87;;
30384;SDS011;17181;51.002;4.096;2022-08-05T08:52:02;3.17;;;1.17;;
30384;SDS011;17181;51.002;4.096;2022-08-05T08:54:35;0.80;;;0.77;;
30384;SDS011;17181;51.002;4.096;2022-08-05T08:57:01;12.93;;;1.20;;
30384;SDS011;17181;51.002;4.096;2022-08-05T08:59:29;1.33;;;1.07;;
30384;SDS011;17181;51.002;4.096;2022-08-05T09:01:54;1.27;;;1.00;;
30384;SDS011;17181;51.002;4.096;2022-08-05T09:04:21;2.57;;;1.40;;
30384;SDS011;17181;51.002;4.096;2022-08-05T09:06:47;0.47;;;0.47;;
30384;SDS011;17181;51.002;4.096;2022-08-05T09:09:13;1.03;;;0.93;;
30384;SDS011;17181;51.002;4.096;2022-08-05T09:11:40;4.07;;;1.13;;
30384;SDS011;17181;51.002;4.096;2022-08-05T09:14:07;2.27;;;1.33;;
30384;SDS011;17181;51.002;4.096;2022-08-05T09:16:33;0.97;;;0.90;;
30384;SDS011;17181;51.002;4.096;2022-08-05T09:18:59;1.90;;;1.27;;
30384;SDS011;17181;51.002;4.096;2022-08-05T09:21:24;2.43;;;0.80;;
30384;SDS011;17181;51.002;4.096;2022-08-05T09:24:05;6.10;;;1.03;;
30384;SDS011;17181;51.002;4.096;2022-08-05T09:26:37;0.57;;;0.57;;
30384;SDS011;17181;51.002;4.096;2022-08-05T09:29:04;6.50;;;1.10;;
30384;SDS011;17181;51.002;4.096;2022-08-05T09:31:32;2.73;;;0.80;;
30384;SDS011;17181;51.002;4.096;2022-08-05T09:34:03;0.50;;;0.50;;
30384;SDS011;17181;51.002;4.096;2022-08-05T09:39:17;0.70;;;0.70;;
30384;SDS011;17181;51.002;4.096;2022-08-05T09:44:34;1.67;;;0.70;;
30384;SDS011;17181;51.002;4.096;2022-08-05T09:47:11;0.67;;;0.60;;
30384;SDS011;17181;51.002;4.096;2022-08-05T09:49:45;4.97;;;0.77;;
30384;SDS011;17181;51.002;4.096;2022-08-05T09:54:55;0.50;;;0.50;;
30384;SDS011;17181;51.002;4.096;2022-08-05T09:57:31;0.87;;;0.60;;
30384;SDS011;17181;51.002;4.096;2022-08-05T10:02:46;1.83;;;0.80;;
30384;SDS011;17181;51.002;4.096;2022-08-05T10:05:14;1.17;;;0.80;;
30384;SDS011;17181;51.002;4.096;2022-08-05T10:07:50;1.07;;;0.63;;
30384;SDS011;17181;51.002;4.096;2022-08-05T10:10:17;0.30;;;0.30;;
30384;SDS011;17181;51.002;4.096;2022-08-05T10:12:56;4.23;;;0.87;;
30384;SDS011;17181;51.002;4.096;2022-08-05T10:15:25;7.13;;;0.97;;
30384;SDS011;17181;51.002;4.096;2022-08-05T10:18:03;2.93;;;0.70;;
30384;SDS011;17181;51.002;4.096;2022-08-05T10:20:30;0.40;;;0.40;;
30384;SDS011;17181;51.002;4.096;2022-08-05T10:22:57;0.83;;;0.70;;
30384;SDS011;17181;51.002;4.096;2022-08-05T10:25:24;0.80;;;0.80;;
30384;SDS011;17181;51.002;4.096;2022-08-05T10:27:52;2.10;;;0.70;;
30384;SDS011;17181;51.002;4.096;2022-08-05T10:30:18;0.50;;;0.50;;
30384;SDS011;17181;51.002;4.096;2022-08-05T10:32:46;0.53;;;0.53;;
30384;SDS011;17181;51.002;4.096;2022-08-05T10:35:13;0.50;;;0.40;;
30384;SDS011;17181;51.002;4.096;2022-08-05T10:37:41;5.87;;;1.27;;
30384;SDS011;17181;51.002;4.096;2022-08-05T10:45:58;3.30;;;0.70;;
30384;SDS011;17181;51.002;4.096;2022-08-05T10:48:28;0.50;;;0.50;;
30384;SDS011;17181;51.002;4.096;2022-08-05T10:50:59;0.43;;;0.43;;
30384;SDS011;17181;51.002;4.096;2022-08-05T10:56:24;4.33;;;1.07;;
30384;SDS011;17181;51.002;4.096;2022-08-05T10:59:03;0.70;;;0.53;;
30384;SDS011;17181;51.002;4.096;2022-08-05T11:04:15;0.50;;;0.50;;
30384;SDS011;17181;51.002;4.096;2022-08-05T11:07:06;0.60;;;0.60;;
30384;SDS011;17181;51.002;4.096;2022-08-05T11:09:36;4.17;;;0.83;;
30384;SDS011;17181;51.002;4.096;2022-08-05T11:12:03;1.80;;;0.50;;
30384;SDS011;17181;51.002;4.096;2022-08-05T11:21:03;0.60;;;0.60;;
30384;SDS011;17181;51.002;4.096;2022-08-05T11:23:55;1.03;;;0.50;;
30384;SDS011;17181;51.002;4.096;2022-08-05T11:26:21;0.83;;;0.50;;
30384;SDS011;17181;51.002;4.096;2022-08-05T11:28:50;0.30;;;0.30;;
30384;SDS011;17181;51.002;4.096;2022-08-05T11:31:24;0.40;;;0.40;;
30384;SDS011;17181;51.002;4.096;2022-08-05T11:34:06;7.10;;;0.60;;
30384;SDS011;17181;51.002;4.096;2022-08-05T11:36:43;2.47;;;0.37;;
30384;SDS011;17181;51.002;4.096;2022-08-05T11:39:14;1.20;;;0.53;;
30384;SDS011;17181;51.002;4.096;2022-08-05T11:41:48;0.53;;;0.50;;
30384;SDS011;17181;51.002;4.096;2022-08-05T11:44:15;1.00;;;0.70;;
30384;SDS011;17181;51.002;4.096;2022-08-05T11:46:51;5.17;;;0.50;;
30384;SDS011;17181;51.002;4.096;2022-08-05T11:49:18;0.50;;;0.50;;
30384;SDS011;17181;51.002;4.096;2022-08-05T11:51:46;0.77;;;0.50;;
30384;SDS011;17181;51.002;4.096;2022-08-05T11:54:22;0.30;;;0.30;;
30384;SDS011;17181;51.002;4.096;2022-08-05T11:56:52;1.90;;;0.30;;
30384;SDS011;17181;51.002;4.096;2022-08-05T11:59:21;0.83;;;0.47;;
30384;SDS011;17181;51.002;4.096;2022-08-05T12:05:06;0.67;;;0.67;;
30384;SDS011;17181;51.002;4.096;2022-08-05T12:07:27;0.37;;;0.33;;
30384;SDS011;17181;51.002;4.096;2022-08-05T12:09:58;0.90;;;0.63;;
30384;SDS011;17181;51.002;4.096;2022-08-05T12:12:27;0.50;;;0.40;;
30384;SDS011;17181;51.002;4.096;2022-08-05T12:14:54;0.40;;;0.40;;
30384;SDS011;17181;51.002;4.096;2022-08-05T12:17:22;1.13;;;0.50;;
30384;SDS011;17181;51.002;4.096;2022-08-05T12:19:52;4.37;;;0.70;;
30384;SDS011;17181;51.002;4.096;2022-08-05T12:22:20;2.63;;;0.57;;
30384;SDS011;17181;51.002;4.096;2022-08-05T12:24:51;1.00;;;0.53;;
30384;SDS011;17181;51.002;4.096;2022-08-05T12:27:22;1.93;;;0.50;;
30384;SDS011;17181;51.002;4.096;2022-08-05T12:30:03;0.30;;;0.30;;
30384;SDS011;17181;51.002;4.096;2022-08-05T12:32:31;0.30;;;0.30;;
30384;SDS011;17181;51.002;4.096;2022-08-05T12:34:59;6.33;;;0.97;;
30384;SDS011;17181;51.002;4.096;2022-08-05T12:37:28;1.53;;;0.80;;
30384;SDS011;17181;51.002;4.096;2022-08-05T12:40:00;0.73;;;0.40;;
30384;SDS011;17181;51.002;4.096;2022-08-05T12:42:30;1.30;;;0.57;;
30384;SDS011;17181;51.002;4.096;2022-08-05T12:45:07;1.60;;;0.57;;
30384;SDS011;17181;51.002;4.096;2022-08-05T12:47:34;0.73;;;0.37;;
30384;SDS011;17181;51.002;4.096;2022-08-05T12:50:02;2.10;;;0.70;;
30384;SDS011;17181;51.002;4.096;2022-08-05T12:52:40;0.63;;;0.60;;
30384;SDS011;17181;51.002;4.096;2022-08-05T12:55:15;0.40;;;0.40;;
30384;SDS011;17181;51.002;4.096;2022-08-05T12:57:43;0.90;;;0.90;;
30384;SDS011;17181;51.002;4.096;2022-08-05T13:00:18;1.03;;;0.50;;
30384;SDS011;17181;51.002;4.096;2022-08-05T13:02:46;0.77;;;0.30;;
30384;SDS011;17181;51.002;4.096;2022-08-05T13:05:12;3.30;;;0.40;;
30384;SDS011;17181;51.002;4.096;2022-08-05T13:07:38;0.40;;;0.40;;
30384;SDS011;17181;51.002;4.096;2022-08-05T13:10:08;2.13;;;0.40;;
30384;SDS011;17181;51.002;4.096;2022-08-05T13:12:39;0.50;;;0.50;;
30384;SDS011;17181;51.002;4.096;2022-08-05T13:15:09;0.27;;;0.27;;
30384;SDS011;17181;51.002;4.096;2022-08-05T13:17:39;1.80;;;0.20;;
30384;SDS011;17181;51.002;4.096;2022-08-05T13:22:48;0.40;;;0.40;;
30384;SDS011;17181;51.002;4.096;2022-08-05T13:25:19;4.70;;;0.50;;
30384;SDS011;17181;51.002;4.096;2022-08-05T13:27:51;0.20;;;0.20;;
30384;SDS011;17181;51.002;4.096;2022-08-05T13:30:21;0.30;;;0.30;;
30384;SDS011;17181;51.002;4.096;2022-08-05T13:32:50;3.45;;;0.50;;
30384;SDS011;17181;51.002;4.096;2022-08-05T13:35:17;0.20;;;0.20;;
30384;SDS011;17181;51.002;4.096;2022-08-05T13:37:45;0.90;;;0.60;;
30384;SDS011;17181;51.002;4.096;2022-08-05T13:40:11;1.20;;;0.43;;
30384;SDS011;17181;51.002;4.096;2022-08-05T13:42:38;0.50;;;0.50;;
30384;SDS011;17181;51.002;4.096;2022-08-05T13:45:04;3.78;;;0.60;;
30384;SDS011;17181;51.002;4.096;2022-08-05T13:47:32;0.22;;;0.22;;
30384;SDS011;17181;51.002;4.096;2022-08-05T13:50:02;0.08;;;0.08;;
30384;SDS011;17181;51.002;4.096;2022-08-05T13:52:29;0.52;;;0.52;;
30384;SDS011;17181;51.002;4.096;2022-08-05T13:54:55;0.30;;;0.30;;
30384;SDS011;17181;51.002;4.096;2022-08-05T13:57:22;0.35;;;0.35;;
30384;SDS011;17181;51.002;4.096;2022-08-05T13:59:48;0.20;;;0.20;;
30384;SDS011;17181;51.002;4.096;2022-08-05T14:02:14;0.55;;;0.55;;
30384;SDS011;17181;51.002;4.096;2022-08-05T14:04:44;0.77;;;0.43;;
30384;SDS011;17181;51.002;4.096;2022-08-05T14:07:34;0.45;;;0.45;;
30384;SDS011;17181;51.002;4.096;2022-08-05T14:10:05;8.50;;;0.47;;
30384;SDS011;17181;51.002;4.096;2022-08-05T14:12:33;0.40;;;0.40;;
30384;SDS011;17181;51.002;4.096;2022-08-05T14:14:59;1.73;;;0.70;;
30384;SDS011;17181;51.002;4.096;2022-08-05T14:17:25;5.47;;;1.70;;
30384;SDS011;17181;51.002;4.096;2022-08-05T14:19:51;0.30;;;0.30;;
30384;SDS011;17181;51.002;4.096;2022-08-05T14:22:18;1.08;;;0.60;;
30384;SDS011;17181;51.002;4.096;2022-08-05T14:24:45;1.75;;;0.30;;
30384;SDS011;17181;51.002;4.096;2022-08-05T14:27:11;0.32;;;0.32;;
30384;SDS011;17181;51.002;4.096;2022-08-05T14:29:38;2.92;;;0.50;;
30384;SDS011;17181;51.002;4.096;2022-08-05T14:32:04;0.40;;;0.40;;
30384;SDS011;17181;51.002;4.096;2022-08-05T14:34:30;1.05;;;0.60;;
30384;SDS011;17181;51.002;4.096;2022-08-05T14:36:59;3.40;;;0.98;;
30384;SDS011;17181;51.002;4.096;2022-08-05T14:39:25;0.25;;;0.25;;
30384;SDS011;17181;51.002;4.096;2022-08-05T14:41:51;0.52;;;0.30;;
30384;SDS011;17181;51.002;4.096;2022-08-05T14:44:17;1.90;;;0.45;;
30384;SDS011;17181;51.002;4.096;2022-08-05T14:46:43;2.10;;;0.50;;
30384;SDS011;17181;51.002;4.096;2022-08-05T14:49:09;1.20;;;0.70;;
30384;SDS011;17181;51.002;4.096;2022-08-05T14:51:35;1.33;;;0.65;;
30384;SDS011;17181;51.002;4.096;2022-08-05T14:54:02;1.02;;;0.68;;
30384;SDS011;17181;51.002;4.096;2022-08-05T14:56:28;0.82;;;0.80;;
30384;SDS011;17181;51.002;4.096;2022-08-05T14:58:54;0.40;;;0.40;;
30384;SDS011;17181;51.002;4.096;2022-08-05T15:01:20;0.40;;;0.40;;
30384;SDS011;17181;51.002;4.096;2022-08-05T15:03:46;0.40;;;0.40;;
30384;SDS011;17181;51.002;4.096;2022-08-05T15:06:13;0.52;;;0.52;;
30384;SDS011;17181;51.002;4.096;2022-08-05T15:08:40;0.30;;;0.30;;
30384;SDS011;17181;51.002;4.096;2022-08-05T15:11:06;1.23;;;0.47;;
30384;SDS011;17181;51.002;4.096;2022-08-05T15:13:32;0.50;;;0.50;;
30384;SDS011;17181;51.002;4.096;2022-08-05T15:15:58;0.65;;;0.65;;
30384;SDS011;17181;51.002;4.096;2022-08-05T15:18:24;0.25;;;0.25;;
30384;SDS011;17181;51.002;4.096;2022-08-05T15:20:50;1.67;;;0.57;;
30384;SDS011;17181;51.002;4.096;2022-08-05T15:23:16;0.35;;;0.35;;
30384;SDS011;17181;51.002;4.096;2022-08-05T15:25:41;0.80;;;0.60;;
30384;SDS011;17181;51.002;4.096;2022-08-05T15:28:07;2.03;;;0.45;;
30384;SDS011;17181;51.002;4.096;2022-08-05T15:30:34;0.55;;;0.55;;
30384;SDS011;17181;51.002;4.096;2022-08-05T15:33:01;1.50;;;0.60;;
30384;SDS011;17181;51.002;4.096;2022-08-05T15:35:28;1.08;;;0.60;;
30384;SDS011;17181;51.002;4.096;2022-08-05T15:37:54;1.38;;;0.85;;
30384;SDS011;17181;51.002;4.096;2022-08-05T15:40:19;1.45;;;0.50;;